Create Custom Reports and Graphics: Custom Report

AM-Roundhouse Top 7880'

Current Conditions

1/23/22 5:00 AM (-08:00)
Updated Every 15 Minutes
Temp 25.7 °F   6.2
RH 80 %   3
Wet Bulb 23.7 °F   5.6
Dew Pt 20.5 °F   5.2
Wind Spd 12.2 mph   3.9
Wind Dir ENE | 74 °
Wind Gust 19.0 mph   0.9
WindChill 14.8 °F   4.4

Last 6 Hours

AM-Roundhouse Top 7880'

15 Minute Data | America/Los_Angeles
as of 1/23/22 5:10 AM PST
Date & Time Temp (°F) RH (%) Dew Pt (°F) Wet Bulb (°F) Wind Dir (°) Wind Spd (mph) Wind Gust (mph) WindChill (°F)
1/23/22 - 0500 25.7 80 20.5 23.7 ENE | 74 12.2 19.0 14.8
1/23/22 - 0445 25.3 80 20.0 23.3 E | 79 11.7 17.0 14.8
1/23/22 - 0430 25.0 81 20.0 23.2 ENE | 73 12.4 18.7 14.2
1/23/22 - 0415 25.0 82 20.2 23.3 ENE | 74 13.2 19.7 13.9
1/23/22 - 0400 25.3 81 20.2 23.4 ENE | 59 8.9 19.2 16.7
1/23/22 - 0345 25.3 82 20.6 23.6 ENE | 62 11.3 17.8 14.8
1/23/22 - 0330 25.3 82 20.6 23.5 ENE | 66 12.0 18.4 14.4
1/23/22 - 0315 25.1 82 20.3 23.3 ENE | 60 11.0 20.6 15.1
1/23/22 - 0300 25.3 80 20.1 23.4 ENE | 69 12.8 21.0 14.0
1/23/22 - 0245 25.1 80 20.0 23.2 ENE | 62 14.2 21.3 13.4
1/23/22 - 0230 24.9 80 19.7 23.0 ENE | 69 14.0 21.2 13.3
1/23/22 - 0215 24.9 80 19.6 22.9 ENE | 66 13.8 22.8 13.4
1/23/22 - 0200 25.0 79 19.5 23.0 ENE | 65 14.6 23.8 13.1
1/23/22 - 0145 24.9 79 19.2 22.8 ENE | 69 16.0 26.2 12.6
1/23/22 - 0130 25.1 78 19.2 22.9 ENE | 68 16.8 23.5 12.4
1/23/22 - 0115 25.5 76 19.0 23.1 ENE | 68 15.1 23.0 13.2
1/23/22 - 0100 25.3 77 19.2 23.0 ENE | 75 14.6 22.3 13.6
1/23/22 - 0045 25.9 76 19.3 23.5 ENE | 57 9.3 17.8 17.1
1/23/22 - 0030 25.8 76 19.2 23.3 NE | 49 5.4 13.1 20.5
1/23/22 - 0015 26.2 74 19.2 23.6 NE | 50 6.4 13.9 19.5
1/23/22 - 0000 26.0 76 19.6 23.6 ENE | 58 7.6 16.4 18.0
1/22/22 - 2345 25.4 77 19.1 23.1 ENE | 59 12.9 21.6 14.3
1/22/22 - 2330 25.2 77 19.1 23.0 NE | 52 10.9 22.5 15.6
1/22/22 - 2315 25.7 77 19.5 23.4 ENE | 64 10.4 21.8 15.9
Max 26.2 82 20.6 23.7 - 16.8 26.2 20.5
Avg 25.3 79 19.7 23.3 - 12.0 20.1 14.9
Min 24.9 74 19.0 22.8 - 5.4 13.1 12.4

Last 30 Days

AM-Roundhouse Top 7880'

Daily Data | America/Los_Angeles
as of 1/23/22 5:10 AM PST
Date Daily Max Temp (°F) Daily Min Temp (°F) Wind Spd (mph) Daily Max Wind (mph) Max RH (%) Min RH (%) Wet Bulb (°F) Bat Volt Min Day (V)
1/22/22 31.8 19.3 10.3 38.3 86 59 22.1 12.8
1/21/22 34.6 21.4 9.2 33.7 82 37 22.7 13.0
1/20/22 50.8 30.4 5.1 18.1 74 36 32.6 12.9
1/19/22 38.0 26.9 3.6 20.4 74 48 27.4 13.2
1/18/22 47.7 30.4 2.0 10.6 64 40 29.7 13.2
1/17/22 45.9 31.3 7.7 18.7 75 30 29.4 12.9
1/16/22 49.3 34.4 6.6 23.2 49 13 29.3 12.8
1/15/22 53.7 30.1 1.4 10.3 59 14 28.2 13.0
1/14/22 37.1 26.9 6.8 25.0 88 25 27.0 12.5
1/13/22 43.3 33.5 7.3 25.5 39 24 28.4 13.2
1/12/22 60.1 39.0 5.2 25.6 41 20 35.0 13.2
1/11/22 53.9 32.7 3.2 16.3 56 31 32.4 13.3
1/10/22 46.8 29.4 3.0 17.1 54 30 27.7 13.2
1/9/22 43.9 22.9 3.0 14.6 80 30 24.9 12.9
1/8/22 32.6 20.4 3.7 19.1 98 54 23.2 13.2
1/7/22 33.4 22.8 9.8 46.9 99 93 28.2 12.9
1/6/22 42.1 33.0 6.4 33.7 97 76 36.1 13.2
1/5/22 39.1 28.2 3.5 18.9 100 94 32.4 13.1
1/4/22 30.5 27.0 6.4 38.2 100 99 29.2 12.6
1/3/22 27.8 18.8 12.6 49.6 100 88 21.6 12.8
1/2/22 27.3 19.6 7.7 30.1 98 94 23.0 12.9
1/1/22 30.7 9.7 2.5 14.8 99 92 20.4 12.9
12/31/21 24.8 10.5 3.2 21.5 98 93 18.7 12.8
12/30/21 26.9 20.1 4.9 26.0 100 96 22.8 13.0
12/29/21 25.2 19.0 3.1 19.0 99 96 21.5 12.9
12/28/21 21.4 14.2 6.6 27.1 97 94 17.5 12.9
12/27/21 18.9 13.8 9.4 34.3 96 94 16.5 13.1
12/26/21 16.3 11.4 11.7 37.0 96 93 13.9 13.2
12/25/21 22.7 15.8 14.5 48.6 98 95 20.0 12.5
12/24/21 28.7 19.7 6.9 38.1 100 97 24.4 12.7
Max 60.1 39.0 14.5 49.6 100 99 36.1 13.3
Avg - - 6.2 - - - 25.5 -
Min 16.3 9.7 1.4 10.3 39 13 13.9 12.5
Calm: 0.0%
Calm: 0.0%